createdAt,value
2019-03-05T00:01:56.238Z,8.03
2019-03-05T00:04:27.392Z,8.05
2019-03-05T00:06:58.846Z,8.05
2019-03-05T00:09:29.975Z,8.22
2019-03-05T00:12:00.929Z,8.00
2019-03-05T00:14:31.972Z,8.14
2019-03-05T00:17:03.265Z,8.06
2019-03-05T00:19:34.573Z,8.19
2019-03-05T00:22:05.777Z,8.13
2019-03-05T00:25:15.361Z,8.04
2019-03-05T00:28:18.896Z,8.01
2019-03-05T00:31:12.964Z,8.09
2019-03-05T00:34:19.329Z,8.05
2019-03-05T00:37:03.614Z,8.17
2019-03-05T00:40:12.724Z,8.31
2019-03-05T00:43:11.202Z,8.33
2019-03-05T00:46:36.889Z,8.42
2019-03-05T00:49:41.406Z,8.71
2019-03-05T00:52:53.835Z,8.40
2019-03-05T00:56:49.396Z,8.47
2019-03-05T01:00:18.301Z,8.34
2019-03-05T01:03:19.518Z,8.43
2019-03-05T01:06:26.733Z,8.29
2019-03-05T01:08:58.230Z,8.25
2019-03-05T01:11:29.420Z,8.21
2019-03-05T01:14:00.818Z,8.55
2019-03-05T01:16:34.362Z,8.46
2019-03-05T01:19:05.469Z,8.30
2019-03-05T01:21:36.526Z,8.37
2019-03-05T01:24:07.684Z,8.44
2019-03-05T01:26:39.313Z,8.29
2019-03-05T01:29:10.336Z,8.47
2019-03-05T01:32:19.225Z,8.68
2019-03-05T01:35:09.179Z,8.57
2019-03-05T01:37:40.603Z,8.60
2019-03-05T01:40:29.561Z,8.68
2019-03-05T01:43:00.624Z,8.63
2019-03-05T01:45:31.928Z,8.60
2019-03-05T01:48:03.412Z,8.69
2019-03-05T01:50:34.710Z,8.72
2019-03-05T01:53:06.098Z,8.41
2019-03-05T01:55:37.589Z,8.30
2019-03-05T01:58:08.802Z,8.45
2019-03-05T02:00:39.791Z,8.37
2019-03-05T02:03:10.997Z,8.31
2019-03-05T02:05:42.044Z,8.33
2019-03-05T02:08:13.166Z,8.37
2019-03-05T02:10:44.609Z,8.28
2019-03-05T02:13:16.213Z,8.38
2019-03-05T02:15:47.464Z,8.33
2019-03-05T02:18:20.965Z,8.21
2019-03-05T02:20:52.016Z,7.96
2019-03-05T02:24:07.321Z,7.99
2019-03-05T02:27:50.322Z,7.76
2019-03-05T02:31:29.692Z,8.08
2019-03-05T02:34:24.354Z,8.16
2019-03-05T02:37:53.219Z,8.22
2019-03-05T02:41:30.831Z,8.19
2019-03-05T02:45:05.562Z,8.24
2019-03-05T02:48:26.401Z,8.34
2019-03-05T02:51:36.773Z,8.47
2019-03-05T02:55:16.296Z,8.56
2019-03-05T02:57:45.528Z,8.62
2019-03-05T03:00:23.952Z,8.61
2019-03-05T03:03:01.758Z,8.62
2019-03-05T03:05:43.130Z,8.71
2019-03-05T03:08:14.497Z,8.73
2019-03-05T03:10:46.302Z,8.73
2019-03-05T03:13:17.825Z,8.75
2019-03-05T03:15:49.375Z,8.74
2019-03-05T03:18:21.697Z,8.69
2019-03-05T03:20:53.308Z,8.39
2019-03-05T03:23:24.383Z,8.35
2019-03-05T03:25:55.888Z,8.31
2019-03-05T03:28:27.085Z,8.30
2019-03-05T03:30:58.187Z,8.21
2019-03-05T03:33:29.666Z,7.99
2019-03-05T03:36:01.077Z,7.78
2019-03-05T03:38:32.390Z,7.67
2019-03-05T03:41:03.873Z,8.01
2019-03-05T03:43:35.096Z,8.18
2019-03-05T03:46:06.239Z,8.10
2019-03-05T03:48:37.302Z,8.48
2019-03-05T03:51:08.362Z,8.31
2019-03-05T03:53:39.697Z,8.21
2019-03-05T03:56:10.817Z,8.16
2019-03-05T03:58:41.960Z,8.41
2019-03-05T04:01:13.428Z,8.27
2019-03-05T04:03:44.656Z,8.35
2019-03-05T04:06:15.954Z,8.36
2019-03-05T04:08:47.203Z,8.35
2019-03-05T04:11:18.503Z,8.39
2019-03-05T04:13:49.795Z,8.25
2019-03-05T04:16:22.025Z,8.50
2019-03-05T04:18:52.987Z,8.63
2019-03-05T04:21:23.952Z,8.49
2019-03-05T04:23:55.171Z,8.39
2019-03-05T04:26:26.497Z,8.28
2019-03-05T04:28:57.516Z,8.27
2019-03-05T04:31:28.516Z,8.48
2019-03-05T04:34:00.048Z,8.58
2019-03-05T04:36:31.028Z,8.63
2019-03-05T04:39:02.524Z,8.47
2019-03-05T04:41:34.771Z,8.39
2019-03-05T04:44:06.036Z,8.48
2019-03-05T04:46:40.329Z,8.45
2019-03-05T04:49:29.166Z,8.30
2019-03-05T04:52:03.498Z,8.21
2019-03-05T04:54:34.720Z,8.34
2019-03-05T04:57:05.868Z,8.26
2019-03-05T04:59:37.431Z,8.43
2019-03-05T05:02:08.503Z,8.31
2019-03-05T05:04:40.363Z,8.21
2019-03-05T05:07:11.415Z,8.23
2019-03-05T05:09:42.883Z,8.33
2019-03-05T05:12:14.117Z,8.20
2019-03-05T05:14:45.317Z,8.09
2019-03-05T05:17:16.376Z,8.15
2019-03-05T05:19:47.350Z,8.24
2019-03-05T05:22:18.452Z,8.38
2019-03-05T05:24:49.615Z,8.24
2019-03-05T05:27:22.413Z,8.30
2019-03-05T05:29:53.471Z,8.15
2019-03-05T05:32:24.779Z,8.14
2019-03-05T05:34:56.593Z,8.20
2019-03-05T05:37:27.583Z,8.34
2019-03-05T05:40:23.081Z,7.96
2019-03-05T05:42:54.670Z,8.03
2019-03-05T05:45:28.898Z,7.86
2019-03-05T05:48:00.099Z,7.93
2019-03-05T05:50:31.316Z,8.07
2019-03-05T05:53:02.325Z,7.98
2019-03-05T05:55:33.298Z,7.99
2019-03-05T05:58:05.501Z,7.96
2019-03-05T06:00:40.899Z,7.96
2019-03-05T06:03:15.092Z,8.06
2019-03-05T06:05:46.593Z,8.11
2019-03-05T06:08:17.934Z,8.24
2019-03-05T06:10:49.243Z,8.20
2019-03-05T06:13:20.312Z,8.00
2019-03-05T06:15:52.247Z,7.84
2019-03-05T06:18:23.222Z,7.82
2019-03-05T06:20:54.701Z,7.78
2019-03-05T06:23:25.763Z,8.06
2019-03-05T06:25:57.458Z,8.21
2019-03-05T06:28:29.075Z,8.11
2019-03-05T06:31:00.536Z,7.93
2019-03-05T06:33:32.092Z,8.00
2019-03-05T06:36:03.383Z,7.97
2019-03-05T06:38:34.631Z,7.86
2019-03-05T06:41:11.203Z,7.93
2019-03-05T06:43:44.754Z,7.88
2019-03-05T06:46:16.091Z,8.00
2019-03-05T06:48:48.387Z,8.12
2019-03-05T06:51:19.933Z,7.96
2019-03-05T06:53:52.259Z,7.85
2019-03-05T06:56:23.667Z,7.80
2019-03-05T06:58:54.709Z,7.94
2019-03-05T07:01:26.163Z,7.90
2019-03-05T07:03:57.515Z,7.89
2019-03-05T07:06:57.375Z,7.98
2019-03-05T07:10:17.338Z,7.82
2019-03-05T07:13:00.630Z,7.67
2019-03-05T07:16:00.512Z,7.68
2019-03-05T07:18:46.299Z,7.91
2019-03-05T07:22:12.762Z,7.92
2019-03-05T07:24:52.221Z,7.89
2019-03-05T07:27:40.963Z,7.97
2019-03-05T07:30:23.095Z,7.97
2019-03-05T07:32:55.068Z,7.94
2019-03-05T07:35:31.382Z,7.95
2019-03-05T07:38:02.724Z,8.06
2019-03-05T07:40:33.766Z,8.12
2019-03-05T07:43:05.009Z,8.01
2019-03-05T07:45:36.136Z,8.04
2019-03-05T07:48:07.511Z,8.24
2019-03-05T07:50:38.962Z,8.37
2019-03-05T07:53:09.953Z,8.52
2019-03-05T07:55:40.919Z,8.66
2019-03-05T07:58:11.911Z,8.78
2019-03-05T08:00:42.935Z,8.95
2019-03-05T08:03:14.664Z,8.89
2019-03-05T08:05:47.520Z,9.01
2019-03-05T08:09:13.388Z,9.07
2019-03-05T08:11:44.838Z,9.16
2019-03-05T08:15:01.910Z,9.22
2019-03-05T08:17:33.501Z,9.37
2019-03-05T08:20:05.371Z,9.59
2019-03-05T08:22:36.724Z,9.55
2019-03-05T08:25:09.578Z,9.69
2019-03-05T08:27:40.796Z,9.69
2019-03-05T08:30:15.023Z,9.66
2019-03-05T08:32:46.207Z,9.86
2019-03-05T08:35:17.271Z,10.01
2019-03-05T08:37:48.480Z,10.10
2019-03-05T08:40:19.685Z,10.04
2019-03-05T08:42:51.990Z,10.10
2019-03-05T08:45:29.190Z,10.07
2019-03-05T08:47:57.174Z,9.97
2019-03-05T08:50:28.153Z,10.12
2019-03-05T08:53:00.332Z,10.26
2019-03-05T08:55:32.935Z,10.40
2019-03-05T08:58:04.261Z,10.60
2019-03-05T09:00:35.862Z,10.89
2019-03-05T09:03:07.028Z,11.06
2019-03-05T09:05:38.071Z,11.17
2019-03-05T09:08:09.849Z,11.19
2019-03-05T09:10:40.996Z,11.01
2019-03-05T09:13:12.778Z,11.10
2019-03-05T09:15:43.986Z,11.23
2019-03-05T09:18:15.770Z,11.17
2019-03-05T09:20:47.474Z,11.24
2019-03-05T09:23:18.815Z,11.37
2019-03-05T09:25:50.538Z,11.58
2019-03-05T09:28:22.511Z,11.49
2019-03-05T09:30:53.882Z,11.40
2019-03-05T09:33:24.890Z,11.44
2019-03-05T09:35:56.281Z,11.30
2019-03-05T09:38:29.163Z,11.29
2019-03-05T09:41:01.366Z,11.31
2019-03-05T09:43:32.691Z,11.55
2019-03-05T09:46:04.105Z,11.76
2019-03-05T09:48:35.371Z,11.83
2019-03-05T09:51:06.605Z,11.85
2019-03-05T09:53:37.804Z,11.89
2019-03-05T09:56:08.900Z,11.72
2019-03-05T09:58:41.633Z,11.82
2019-03-05T10:01:13.015Z,11.81
2019-03-05T10:03:44.536Z,11.97
2019-03-05T10:06:16.045Z,12.10
2019-03-05T10:08:47.422Z,12.08
2019-03-05T10:11:19.355Z,11.89
2019-03-05T10:13:50.626Z,11.82
2019-03-05T10:16:22.055Z,11.93
2019-03-05T10:18:53.521Z,12.12
2019-03-05T10:21:24.886Z,12.15
2019-03-05T10:23:56.129Z,11.99
2019-03-05T10:26:29.184Z,11.97
2019-03-05T10:29:00.645Z,12.11
2019-03-05T10:31:33.285Z,12.20
2019-03-05T10:34:06.557Z,12.00
2019-03-05T10:36:37.528Z,11.52
2019-03-05T10:39:30.788Z,11.33
2019-03-05T10:42:03.706Z,11.24
2019-03-05T10:44:35.337Z,11.30
2019-03-05T10:47:06.774Z,11.45
2019-03-05T10:49:40.128Z,11.60
2019-03-05T10:52:12.257Z,11.71
2019-03-05T10:54:44.180Z,11.79
2019-03-05T10:57:16.223Z,11.86
2019-03-05T10:59:47.835Z,11.72
2019-03-05T11:02:19.676Z,11.50
2019-03-05T11:04:52.384Z,11.65
2019-03-05T11:07:23.897Z,11.81
2019-03-05T11:09:55.796Z,11.73
2019-03-05T11:12:27.582Z,11.65
2019-03-05T11:14:59.653Z,11.67
2019-03-05T11:17:31.065Z,11.61
2019-03-05T11:20:02.409Z,11.68
2019-03-05T11:22:33.477Z,11.76
2019-03-05T11:25:04.739Z,12.07
2019-03-05T11:27:37.260Z,12.15
2019-03-05T11:30:12.328Z,12.17
2019-03-05T11:32:44.214Z,12.23
2019-03-05T11:35:19.133Z,12.11
2019-03-05T11:37:51.306Z,11.87
2019-03-05T11:40:22.773Z,12.02
2019-03-05T11:42:54.962Z,11.76
2019-03-05T11:45:27.391Z,11.55
2019-03-05T11:47:58.959Z,11.50
2019-03-05T11:50:30.419Z,11.39
2019-03-05T11:53:06.020Z,11.26
2019-03-05T11:55:37.490Z,11.34
2019-03-05T11:58:08.633Z,11.36
2019-03-05T12:00:57.191Z,11.10
2019-03-05T12:03:28.791Z,11.17
2019-03-05T12:05:59.898Z,11.20
2019-03-05T12:08:31.848Z,11.35
2019-03-05T12:11:02.986Z,11.53
2019-03-05T12:13:34.707Z,11.15
2019-03-05T12:16:15.171Z,11.35
2019-03-05T12:18:45.494Z,11.24
2019-03-05T12:21:16.979Z,11.08
2019-03-05T12:23:48.423Z,11.26
2019-03-05T12:26:19.779Z,11.27
2019-03-05T12:28:51.655Z,11.10
2019-03-05T12:31:23.602Z,11.10
2019-03-05T12:33:54.665Z,11.10
2019-03-05T12:36:25.993Z,11.13
2019-03-05T12:38:56.969Z,11.04
2019-03-05T12:41:28.727Z,11.08
2019-03-05T12:43:59.760Z,11.32
2019-03-05T12:46:30.777Z,11.10
2019-03-05T12:49:02.461Z,11.33
2019-03-05T12:51:33.959Z,11.27
2019-03-05T12:54:05.355Z,11.35
2019-03-05T12:56:37.312Z,11.25
2019-03-05T12:59:08.635Z,10.87
2019-03-05T13:01:40.159Z,10.85
2019-03-05T13:04:11.465Z,10.69
2019-03-05T13:06:43.191Z,10.86
2019-03-05T13:09:19.657Z,10.85
2019-03-05T13:11:51.003Z,10.80
2019-03-05T13:14:22.653Z,10.92
2019-03-05T13:16:53.642Z,10.94
2019-03-05T13:19:24.986Z,10.88
2019-03-05T13:21:56.441Z,10.94
2019-03-05T13:24:27.455Z,10.69
2019-03-05T13:26:59.736Z,10.58
2019-03-05T13:29:30.755Z,10.53
2019-03-05T13:32:02.228Z,10.53
2019-03-05T13:34:33.567Z,10.48
2019-03-05T13:37:05.138Z,10.32
2019-03-05T13:39:36.216Z,10.19
2019-03-05T13:42:07.994Z,10.23
2019-03-05T13:44:39.053Z,10.19
2019-03-05T13:47:13.338Z,10.18
2019-03-05T13:50:28.290Z,10.21
2019-03-05T13:53:39.967Z,10.26
2019-03-05T13:56:58.938Z,10.25
2019-03-05T13:59:51.954Z,10.22
2019-03-05T14:02:32.277Z,9.93
2019-03-05T14:05:50.079Z,9.96
2019-03-05T14:09:12.854Z,9.69
2019-03-05T14:11:44.954Z,9.68
2019-03-05T14:14:31.032Z,9.88
2019-03-05T14:17:19.868Z,9.92
2019-03-05T14:19:59.166Z,9.76
2019-03-05T14:22:30.252Z,9.74
2019-03-05T14:25:03.057Z,9.75
2019-03-05T14:27:34.116Z,9.78
2019-03-05T14:30:06.672Z,9.79
2019-03-05T14:32:37.773Z,9.67
2019-03-05T14:35:14.208Z,9.80
2019-03-05T14:37:45.839Z,9.73
2019-03-05T14:40:24.547Z,9.87
2019-03-05T14:42:55.060Z,9.82
2019-03-05T14:45:29.139Z,9.77
2019-03-05T14:48:02.238Z,9.75
2019-03-05T14:50:34.518Z,9.71
2019-03-05T14:53:06.169Z,9.65
2019-03-05T14:55:38.960Z,9.54
2019-03-05T14:58:10.377Z,9.50
2019-03-05T15:00:41.656Z,9.40
2019-03-05T15:03:12.766Z,9.20
2019-03-05T15:05:45.389Z,9.24
2019-03-05T15:08:17.432Z,9.33
2019-03-05T15:10:48.551Z,9.20
2019-03-05T15:13:20.505Z,9.25
2019-03-05T15:15:51.620Z,9.22
2019-03-05T15:18:23.048Z,9.53
2019-03-05T15:20:54.260Z,9.54
2019-03-05T15:23:26.166Z,9.62
2019-03-05T15:25:57.495Z,9.68
2019-03-05T15:28:29.317Z,9.60
2019-03-05T15:31:01.115Z,9.46
2019-03-05T15:33:32.114Z,9.13
2019-03-05T15:36:03.432Z,9.40
2019-03-05T15:38:34.803Z,9.51
2019-03-05T15:41:06.240Z,9.59
2019-03-05T15:43:37.347Z,9.69
2019-03-05T15:46:09.131Z,9.73
2019-03-05T15:48:40.430Z,9.81
2019-03-05T15:51:12.000Z,9.73
2019-03-05T15:56:15.092Z,9.68
2019-03-05T15:58:46.121Z,9.65
2019-03-05T16:01:22.182Z,9.56
2019-03-05T16:03:50.728Z,9.54
2019-03-05T16:06:21.739Z,9.61
2019-03-05T16:08:52.720Z,9.44
2019-03-05T16:11:24.582Z,9.68
2019-03-05T16:13:56.825Z,9.68
2019-03-05T16:16:29.118Z,9.51
2019-03-05T16:19:00.981Z,9.46
2019-03-05T16:21:32.620Z,9.44
2019-03-05T16:24:03.886Z,9.12
2019-03-05T16:26:35.013Z,9.36
2019-03-05T16:29:06.144Z,9.28
2019-03-05T16:31:57.284Z,9.26
2019-03-05T16:34:46.875Z,9.43
2019-03-05T16:37:31.135Z,9.19
2019-03-05T16:40:18.616Z,9.11
2019-03-05T16:43:21.521Z,9.08
2019-03-05T16:46:20.667Z,8.96
2019-03-05T16:49:11.070Z,8.97
2019-03-05T16:51:51.098Z,9.07
2019-03-05T16:54:28.901Z,8.94
2019-03-05T16:57:18.834Z,8.74
2019-03-05T17:00:09.061Z,8.71
2019-03-05T17:03:05.373Z,8.62
2019-03-05T17:05:50.481Z,8.60
2019-03-05T17:08:35.923Z,8.61
2019-03-05T17:11:21.575Z,8.64
2019-03-05T17:13:53.227Z,8.53
2019-03-05T17:16:25.679Z,8.97
2019-03-05T17:18:56.999Z,8.87
2019-03-05T17:21:29.703Z,8.84
2019-03-05T17:24:00.770Z,8.81
2019-03-05T17:26:32.703Z,8.80
2019-03-05T17:29:04.125Z,8.74
2019-03-05T17:31:35.264Z,8.76
2019-03-05T17:34:06.356Z,8.79
2019-03-05T17:36:37.665Z,8.58
2019-03-05T17:39:17.129Z,8.50
2019-03-05T17:41:48.823Z,8.56
2019-03-05T17:44:20.118Z,8.46
2019-03-05T17:46:51.804Z,8.40
2019-03-05T17:49:23.464Z,8.48
2019-03-05T17:51:54.521Z,8.57
2019-03-05T17:54:26.278Z,8.56
2019-03-05T17:56:57.714Z,8.51
2019-03-05T17:59:29.577Z,8.55
2019-03-05T18:02:00.614Z,8.57
2019-03-05T18:04:32.048Z,8.79
2019-03-05T18:07:03.576Z,8.70
2019-03-05T18:09:34.652Z,8.69
2019-03-05T18:12:06.306Z,8.69
2019-03-05T18:14:37.946Z,8.89
2019-03-05T18:17:09.516Z,8.80
2019-03-05T18:19:41.162Z,8.79
2019-03-05T18:22:12.123Z,8.67
2019-03-05T18:24:43.192Z,8.70
2019-03-05T18:27:14.311Z,8.58
2019-03-05T18:29:46.220Z,8.53
2019-03-05T18:32:17.501Z,8.55
2019-03-05T18:34:48.748Z,8.70
2019-03-05T18:37:20.060Z,8.74
2019-03-05T18:39:52.357Z,8.78
2019-03-05T18:42:24.036Z,8.78
2019-03-05T18:44:55.456Z,8.94
2019-03-05T18:47:26.771Z,9.02
2019-03-05T18:49:58.194Z,8.94
2019-03-05T18:52:30.391Z,8.83
2019-03-05T18:55:02.581Z,8.92
2019-03-05T18:57:35.825Z,8.91
2019-03-05T19:00:11.341Z,8.68
2019-03-05T19:02:44.036Z,8.97
2019-03-05T19:05:16.289Z,9.07
2019-03-05T19:07:47.412Z,9.01
2019-03-05T19:10:28.648Z,9.04
2019-03-05T19:13:01.997Z,9.10
2019-03-05T19:15:33.584Z,9.04
2019-03-05T19:18:05.109Z,9.04
2019-03-05T19:20:36.574Z,9.07
2019-03-05T19:23:07.622Z,9.15
2019-03-05T19:25:38.968Z,9.17
2019-03-05T19:28:11.505Z,9.13
2019-03-05T19:30:42.768Z,9.23
2019-03-05T19:33:13.912Z,9.27
2019-03-05T19:35:45.407Z,9.24
2019-03-05T19:38:16.808Z,9.20
2019-03-05T19:40:48.126Z,9.18
2019-03-05T19:43:19.416Z,9.19
2019-03-05T19:45:50.509Z,9.22
2019-03-05T19:48:21.796Z,9.31
2019-03-05T19:50:53.485Z,9.24
2019-03-05T19:53:24.769Z,9.32
2019-03-05T19:55:55.965Z,9.26
2019-03-05T19:58:27.210Z,9.22
2019-03-05T20:01:04.736Z,9.09
2019-03-05T20:03:36.146Z,9.12
2019-03-05T20:06:08.727Z,9.25
2019-03-05T20:08:40.544Z,9.24
2019-03-05T20:11:11.814Z,9.28
2019-03-05T20:13:43.178Z,9.26
2019-03-05T20:16:17.185Z,9.23
2019-03-05T20:18:48.526Z,9.24
2019-03-05T20:21:19.644Z,9.23
2019-03-05T20:23:50.917Z,9.24
2019-03-05T20:26:22.018Z,9.18
2019-03-05T20:28:53.552Z,9.35
2019-03-05T20:31:25.092Z,9.28
2019-03-05T20:33:57.039Z,9.20
2019-03-05T20:36:28.075Z,9.18
2019-03-05T20:39:00.883Z,9.33
2019-03-05T20:41:33.936Z,9.24
2019-03-05T20:44:05.739Z,9.12
2019-03-05T20:46:37.494Z,9.16
2019-03-05T20:49:08.765Z,9.05
2019-03-05T20:51:40.843Z,9.28
2019-03-05T20:54:13.269Z,9.24
2019-03-05T20:56:44.802Z,9.28
2019-03-05T20:59:16.055Z,9.32
2019-03-05T21:01:48.257Z,9.24
2019-03-05T21:04:19.691Z,9.23
2019-03-05T21:06:50.774Z,9.23
2019-03-05T21:09:23.915Z,9.28
2019-03-05T21:11:55.392Z,9.29
2019-03-05T21:14:26.858Z,9.42
2019-03-05T21:16:58.462Z,9.30
2019-03-05T21:19:30.078Z,9.24
2019-03-05T21:22:01.997Z,9.38
2019-03-05T21:24:33.437Z,9.42
2019-03-05T21:27:04.848Z,9.39
2019-03-05T21:29:36.178Z,9.39
2019-03-05T21:32:07.183Z,9.48
2019-03-05T21:34:38.542Z,9.52
2019-03-05T21:37:09.867Z,9.45
2019-03-05T21:39:41.518Z,9.34
2019-03-05T21:42:13.178Z,9.43
2019-03-05T21:44:44.423Z,9.32
2019-03-05T21:47:15.896Z,9.35
2019-03-05T21:49:47.354Z,9.31
2019-03-05T21:52:19.085Z,9.41
2019-03-05T21:54:50.447Z,9.33
2019-03-05T21:57:21.794Z,9.34
2019-03-05T21:59:53.845Z,9.28
2019-03-05T22:02:24.823Z,9.34
2019-03-05T22:04:56.642Z,9.39
2019-03-05T22:07:28.023Z,9.31
2019-03-05T22:10:00.479Z,9.33
2019-03-05T22:12:31.968Z,9.41
2019-03-05T22:15:03.503Z,9.39
2019-03-05T22:17:36.115Z,9.28
2019-03-05T22:20:09.201Z,9.31
2019-03-05T22:22:41.005Z,9.41
2019-03-05T22:25:14.907Z,9.30
2019-03-05T22:27:46.353Z,9.27
2019-03-05T22:30:23.567Z,9.28
2019-03-05T22:32:54.876Z,9.28
2019-03-05T22:35:26.848Z,9.22
2019-03-05T22:37:58.306Z,9.22
2019-03-05T22:40:30.462Z,9.31
2019-03-05T22:43:01.731Z,9.39
2019-03-05T22:45:32.889Z,9.33
2019-03-05T22:48:04.416Z,9.27
2019-03-05T22:50:35.661Z,9.26
2019-03-05T22:53:07.003Z,9.07
2019-03-05T22:55:38.382Z,9.18
2019-03-05T22:58:09.710Z,9.18
2019-03-05T23:01:06.613Z,9.39
2019-03-05T23:04:01.150Z,9.39
2019-03-05T23:06:32.718Z,9.25
2019-03-05T23:09:06.847Z,9.24
2019-03-05T23:11:40.190Z,9.23
2019-03-05T23:14:11.476Z,9.38
2019-03-05T23:16:43.022Z,9.24
2019-03-05T23:19:16.508Z,9.37
2019-03-05T23:21:47.636Z,9.42
2019-03-05T23:24:18.891Z,9.38
2019-03-05T23:26:50.177Z,9.39
2019-03-05T23:29:27.567Z,9.39
2019-03-05T23:32:00.551Z,9.46
2019-03-05T23:34:32.377Z,9.45
2019-03-05T23:37:03.623Z,9.36
2019-03-05T23:39:35.281Z,9.28
2019-03-05T23:42:06.346Z,9.35
2019-03-05T23:44:38.276Z,9.23
2019-03-05T23:47:10.593Z,9.25
2019-03-05T23:49:43.279Z,9.31
2019-03-05T23:52:14.683Z,9.33
2019-03-05T23:54:45.998Z,9.32
2019-03-05T23:57:17.277Z,9.24
2019-03-05T23:59:48.527Z,9.28
